createdAt,value
2023-01-25T00:01:00.823Z,21.75
2023-01-25T00:03:27.307Z,21.47
2023-01-25T00:05:53.712Z,21.52
2023-01-25T00:08:20.090Z,21.05
2023-01-25T00:10:46.474Z,21.61
2023-01-25T00:13:12.869Z,21.65
2023-01-25T00:15:39.236Z,21.36
2023-01-25T00:18:05.675Z,21.32
2023-01-25T00:20:32.029Z,21.21
2023-01-25T00:22:58.392Z,21.48
2023-01-25T00:25:24.760Z,21.39
2023-01-25T00:27:51.130Z,22.16
2023-01-25T00:30:17.509Z,22.25
2023-01-25T00:32:43.989Z,21.74
2023-01-25T00:35:10.636Z,21.43
2023-01-25T00:37:37.142Z,21.06
2023-01-25T00:40:03.571Z,21.43
2023-01-25T00:42:29.951Z,21.20
2023-01-25T00:44:56.316Z,21.41
2023-01-25T00:47:22.694Z,21.06
2023-01-25T00:49:49.106Z,21.61
2023-01-25T00:52:15.544Z,21.25
2023-01-25T00:54:41.917Z,22.05
2023-01-25T00:57:08.293Z,21.42
2023-01-25T00:59:34.686Z,21.92
2023-01-25T01:02:01.231Z,21.65
2023-01-25T01:04:27.678Z,21.41
2023-01-25T01:06:54.055Z,22.08
2023-01-25T01:09:20.445Z,21.66
2023-01-25T01:11:46.816Z,21.99
2023-01-25T01:14:13.212Z,22.16
2023-01-25T01:16:39.642Z,21.77
2023-01-25T01:19:06.054Z,22.77
2023-01-25T01:21:32.434Z,22.88
2023-01-25T01:23:58.900Z,21.37
2023-01-25T01:26:25.321Z,21.57
2023-01-25T01:28:51.714Z,21.82
2023-01-25T01:31:18.197Z,22.17
2023-01-25T01:33:44.638Z,21.88
2023-01-25T01:36:11.011Z,22.34
2023-01-25T01:38:37.462Z,22.34
2023-01-25T01:41:03.839Z,22.17
2023-01-25T01:43:30.203Z,22.20
2023-01-25T01:45:56.615Z,22.25
2023-01-25T01:48:22.982Z,21.89
2023-01-25T01:50:49.368Z,23.24
2023-01-25T01:53:15.785Z,21.73
2023-01-25T01:55:42.162Z,22.24
2023-01-25T01:58:08.559Z,22.73
2023-01-25T02:00:34.944Z,22.34
2023-01-25T02:03:01.315Z,22.22
2023-01-25T02:05:27.684Z,22.67
2023-01-25T02:07:54.071Z,22.51
2023-01-25T02:10:20.533Z,22.84
2023-01-25T02:12:46.919Z,22.76
2023-01-25T02:15:13.326Z,22.60
2023-01-25T02:17:39.699Z,22.12
2023-01-25T02:20:06.088Z,23.15
2023-01-25T02:22:32.465Z,23.21
2023-01-25T02:24:58.848Z,22.90
2023-01-25T02:27:25.236Z,23.10
2023-01-25T02:29:51.679Z,22.39
2023-01-25T02:32:18.149Z,22.79
2023-01-25T02:34:44.652Z,22.79
2023-01-25T02:37:11.046Z,22.89
2023-01-25T02:39:37.442Z,23.26
2023-01-25T02:42:03.809Z,22.72
2023-01-25T02:44:30.701Z,22.51
2023-01-25T02:46:58.045Z,22.40
2023-01-25T02:49:24.428Z,23.14
2023-01-25T02:51:50.796Z,23.05
2023-01-25T02:54:17.157Z,23.97
2023-01-25T02:56:43.555Z,23.87
2023-01-25T02:59:09.922Z,23.32
2023-01-25T03:01:36.344Z,23.57
2023-01-25T03:04:02.754Z,23.28
2023-01-25T03:06:29.140Z,23.38
2023-01-25T03:08:55.503Z,23.43
2023-01-25T03:11:21.951Z,22.91
2023-01-25T03:13:48.315Z,23.62
2023-01-25T03:16:14.818Z,22.99
2023-01-25T03:18:41.225Z,23.18
2023-01-25T03:21:07.592Z,24.01
2023-01-25T03:23:33.994Z,22.75
2023-01-25T03:26:00.373Z,22.79
2023-01-25T03:28:26.750Z,23.74
2023-01-25T03:30:53.140Z,22.83
2023-01-25T03:33:19.519Z,22.88
2023-01-25T03:35:45.946Z,23.23
2023-01-25T03:38:12.323Z,23.33
2023-01-25T03:40:38.694Z,23.07
2023-01-25T03:43:05.087Z,23.18
2023-01-25T03:45:31.461Z,22.96
2023-01-25T03:47:57.911Z,22.60
2023-01-25T03:50:24.298Z,22.82
2023-01-25T03:52:50.682Z,22.98
2023-01-25T03:55:17.120Z,22.94
2023-01-25T03:57:43.500Z,22.59
2023-01-25T04:00:09.882Z,22.71
2023-01-25T04:02:36.375Z,22.62
2023-01-25T04:05:02.797Z,22.99
2023-01-25T04:07:29.187Z,21.32
2023-01-25T04:09:55.599Z,22.09
2023-01-25T04:12:22.150Z,21.79
2023-01-25T04:14:48.556Z,21.94
2023-01-25T04:17:14.948Z,22.28
2023-01-25T04:19:41.324Z,21.68
2023-01-25T04:22:07.677Z,21.45
2023-01-25T04:24:34.092Z,22.34
2023-01-25T04:27:00.472Z,22.06
2023-01-25T04:29:40.061Z,21.92
2023-01-25T04:32:07.336Z,20.92
2023-01-25T04:34:33.779Z,21.30
2023-01-25T04:37:00.161Z,21.90
2023-01-25T04:39:26.557Z,21.70
2023-01-25T04:41:52.974Z,21.84
2023-01-25T04:44:19.359Z,21.90
2023-01-25T04:46:45.739Z,21.86
2023-01-25T04:49:12.135Z,22.43
2023-01-25T04:51:38.494Z,21.90
2023-01-25T04:54:04.886Z,21.69
2023-01-25T04:56:31.307Z,21.53
2023-01-25T04:58:57.687Z,22.02
2023-01-25T05:01:24.125Z,21.86
2023-01-25T05:03:50.513Z,21.11
2023-01-25T05:06:16.898Z,21.12
2023-01-25T05:08:43.273Z,21.02
2023-01-25T05:11:09.687Z,21.12
2023-01-25T05:13:36.084Z,20.90
2023-01-25T05:16:02.543Z,21.66
2023-01-25T05:18:35.772Z,21.12
2023-01-25T05:21:09.109Z,20.88
2023-01-25T05:23:35.578Z,21.48
2023-01-25T05:26:01.968Z,20.84
2023-01-25T05:28:28.355Z,20.57
2023-01-25T05:30:54.764Z,20.99
2023-01-25T05:33:21.150Z,20.87
2023-01-25T05:35:47.572Z,21.26
2023-01-25T05:38:13.975Z,20.91
2023-01-25T05:40:40.364Z,21.69
2023-01-25T05:43:06.753Z,21.75
2023-01-25T05:45:33.126Z,21.49
2023-01-25T05:47:59.523Z,21.80
2023-01-25T05:50:26.151Z,21.55
2023-01-25T05:52:52.536Z,21.75
2023-01-25T05:55:19.007Z,21.59
2023-01-25T05:57:45.384Z,22.09
2023-01-25T06:00:11.755Z,21.54
2023-01-25T06:02:38.382Z,21.91
2023-01-25T06:05:04.840Z,22.43
2023-01-25T06:07:31.215Z,22.05
2023-01-25T06:09:57.607Z,22.27
2023-01-25T06:12:23.988Z,22.08
2023-01-25T06:14:51.520Z,22.39
2023-01-25T06:17:17.883Z,21.74
2023-01-25T06:19:44.261Z,21.92
2023-01-25T06:22:10.632Z,22.35
2023-01-25T06:24:37.016Z,21.66
2023-01-25T06:27:03.416Z,22.15
2023-01-25T06:29:29.882Z,22.86
2023-01-25T06:31:56.258Z,22.86
2023-01-25T06:34:22.644Z,22.69
2023-01-25T06:36:49.048Z,21.92
2023-01-25T06:39:15.458Z,22.66
2023-01-25T06:41:43.134Z,22.21
2023-01-25T06:44:09.521Z,22.36
2023-01-25T06:46:35.945Z,22.07
2023-01-25T06:49:02.424Z,22.06
2023-01-25T06:51:28.855Z,22.29
2023-01-25T06:53:55.230Z,22.46
2023-01-25T06:56:21.813Z,23.24
2023-01-25T06:58:48.282Z,22.49
2023-01-25T07:01:14.848Z,22.47
2023-01-25T07:03:41.329Z,22.14
2023-01-25T07:06:07.699Z,22.10
2023-01-25T07:08:34.065Z,22.12
2023-01-25T07:11:00.534Z,22.56
2023-01-25T07:13:26.924Z,22.01
2023-01-25T07:15:53.294Z,22.48
2023-01-25T07:18:19.708Z,22.33
2023-01-25T07:20:46.097Z,23.22
2023-01-25T07:23:12.518Z,22.51
2023-01-25T07:25:38.876Z,22.93
2023-01-25T07:28:05.271Z,22.61
2023-01-25T07:30:31.670Z,22.43
2023-01-25T07:32:58.093Z,22.49
2023-01-25T07:35:24.703Z,21.43
2023-01-25T07:37:51.086Z,21.90
2023-01-25T07:40:17.469Z,21.64
2023-01-25T07:42:43.842Z,22.56
2023-01-25T07:45:10.561Z,22.53
2023-01-25T07:47:37.951Z,22.36
2023-01-25T07:50:04.375Z,22.62
2023-01-25T07:52:30.771Z,22.19
2023-01-25T07:54:57.137Z,22.49
2023-01-25T07:57:23.525Z,22.00
2023-01-25T07:59:49.898Z,22.17
2023-01-25T08:02:16.314Z,22.45
2023-01-25T08:04:42.678Z,22.85
2023-01-25T08:07:09.157Z,23.42
2023-01-25T08:09:35.561Z,22.38
2023-01-25T08:12:01.946Z,22.75
2023-01-25T08:14:28.325Z,22.37
2023-01-25T08:16:54.700Z,22.34
2023-01-25T08:19:21.114Z,23.42
2023-01-25T08:21:47.617Z,22.47
2023-01-25T08:24:15.887Z,22.65
2023-01-25T08:26:42.967Z,22.11
2023-01-25T08:29:09.349Z,22.45
2023-01-25T08:31:35.801Z,22.37
2023-01-25T08:34:02.300Z,22.09
2023-01-25T08:36:28.747Z,23.32
2023-01-25T08:38:55.150Z,22.77
2023-01-25T08:41:22.759Z,22.40
2023-01-25T08:43:49.154Z,22.32
2023-01-25T08:46:15.559Z,22.30
2023-01-25T08:48:42.009Z,21.76
2023-01-25T08:51:08.396Z,22.07
2023-01-25T08:53:34.781Z,21.93
2023-01-25T08:56:01.170Z,22.90
2023-01-25T08:58:27.568Z,22.36
2023-01-25T09:00:53.944Z,22.54
2023-01-25T09:03:20.360Z,22.65
2023-01-25T09:05:46.760Z,21.69
2023-01-25T09:08:13.139Z,22.68
2023-01-25T09:10:39.601Z,21.62
2023-01-25T09:13:08.422Z,21.65
2023-01-25T09:15:35.136Z,21.55
2023-01-25T09:18:01.545Z,21.83
2023-01-25T09:20:28.337Z,21.42
2023-01-25T09:22:55.127Z,21.55
2023-01-25T09:25:21.529Z,20.90
2023-01-25T09:27:47.938Z,21.31
2023-01-25T09:30:18.726Z,22.21
2023-01-25T09:32:45.725Z,21.76
2023-01-25T09:35:12.144Z,21.64
2023-01-25T09:37:38.573Z,21.68
2023-01-25T09:40:05.054Z,21.26
2023-01-25T09:42:31.449Z,20.98
2023-01-25T09:44:57.832Z,20.94
2023-01-25T09:47:24.191Z,20.71
2023-01-25T09:49:50.576Z,21.48
2023-01-25T09:52:17.026Z,20.47
2023-01-25T09:54:47.090Z,20.82
2023-01-25T09:57:13.773Z,21.21
2023-01-25T09:59:40.147Z,20.68
2023-01-25T10:02:06.590Z,20.93
2023-01-25T10:04:32.988Z,20.79
2023-01-25T10:07:01.385Z,20.51
2023-01-25T10:09:28.111Z,21.05
2023-01-25T10:11:54.575Z,20.95
2023-01-25T10:14:20.968Z,20.87
2023-01-25T10:16:47.377Z,20.58
2023-01-25T10:19:13.778Z,20.51
2023-01-25T10:21:40.190Z,20.77
2023-01-25T10:24:06.653Z,20.75
2023-01-25T10:26:33.028Z,21.46
2023-01-25T10:28:59.422Z,21.75
2023-01-25T10:31:25.888Z,21.84
2023-01-25T10:33:52.314Z,21.59
2023-01-25T10:36:18.724Z,21.72
2023-01-25T10:38:45.105Z,22.52
2023-01-25T10:41:11.486Z,21.76
2023-01-25T10:43:37.863Z,22.08
2023-01-25T10:46:04.248Z,22.20
2023-01-25T10:48:30.663Z,21.73
2023-01-25T10:50:57.060Z,21.83
2023-01-25T10:53:23.456Z,21.89
2023-01-25T10:55:49.833Z,22.31
2023-01-25T10:58:16.221Z,22.77
2023-01-25T11:00:42.612Z,22.86
2023-01-25T11:03:09.026Z,22.77
2023-01-25T11:05:35.421Z,22.78
2023-01-25T11:08:01.797Z,23.32
2023-01-25T11:10:28.184Z,24.08
2023-01-25T11:12:54.544Z,22.74
2023-01-25T11:15:21.045Z,22.66
2023-01-25T11:17:48.669Z,22.43
2023-01-25T11:20:16.568Z,22.83
2023-01-25T11:22:42.944Z,23.10
2023-01-25T11:25:09.329Z,23.38
2023-01-25T11:27:35.741Z,23.74
2023-01-25T11:30:02.104Z,23.69
2023-01-25T11:32:28.543Z,23.53
2023-01-25T11:34:54.935Z,23.40
2023-01-25T11:37:21.320Z,22.90
2023-01-25T11:39:47.728Z,22.78
2023-01-25T11:42:14.118Z,23.48
2023-01-25T11:44:40.512Z,23.51
2023-01-25T11:47:06.877Z,23.10
2023-01-25T11:49:33.303Z,22.95
2023-01-25T11:52:01.578Z,23.32
2023-01-25T11:54:27.957Z,23.36
2023-01-25T11:56:54.336Z,23.36
2023-01-25T11:59:20.697Z,23.15
2023-01-25T12:01:47.142Z,23.31
2023-01-25T12:04:13.520Z,22.93
2023-01-25T12:06:40.007Z,23.45
2023-01-25T12:09:06.396Z,22.86
2023-01-25T12:11:32.769Z,23.44
2023-01-25T12:13:59.163Z,23.60
2023-01-25T12:16:25.583Z,23.30
2023-01-25T12:18:51.999Z,23.60
2023-01-25T12:21:30.581Z,23.42
2023-01-25T12:23:57.501Z,24.02
2023-01-25T12:26:23.905Z,23.78
2023-01-25T12:28:50.340Z,23.98
2023-01-25T12:31:16.858Z,24.00
2023-01-25T12:33:43.439Z,23.55
2023-01-25T12:36:09.798Z,23.18
2023-01-25T12:38:36.251Z,23.57
2023-01-25T12:41:02.634Z,22.68
2023-01-25T12:43:29.006Z,22.87
2023-01-25T12:45:55.448Z,22.69
2023-01-25T12:48:21.844Z,22.84
2023-01-25T12:50:48.311Z,22.45
2023-01-25T12:53:14.694Z,22.49
2023-01-25T12:55:41.082Z,23.96
2023-01-25T12:58:07.504Z,22.05
2023-01-25T13:00:33.909Z,21.70
2023-01-25T13:03:00.430Z,21.84
2023-01-25T13:05:26.802Z,21.12
2023-01-25T13:07:53.289Z,21.37
2023-01-25T13:10:22.000Z,21.03
2023-01-25T13:12:48.411Z,21.56
2023-01-25T13:15:14.784Z,21.13
2023-01-25T13:17:42.332Z,21.06
2023-01-25T13:20:08.962Z,20.80
2023-01-25T13:22:35.623Z,21.46
2023-01-25T13:25:02.065Z,20.79
2023-01-25T13:27:28.489Z,20.91
2023-01-25T13:29:54.868Z,20.88
2023-01-25T13:32:21.298Z,21.36
2023-01-25T13:34:47.720Z,20.93
2023-01-25T13:37:14.094Z,21.38
2023-01-25T13:39:40.488Z,21.20
2023-01-25T13:42:06.878Z,21.45
2023-01-25T13:44:33.300Z,20.69
2023-01-25T13:46:59.768Z,20.47
2023-01-25T13:49:26.149Z,20.50
2023-01-25T13:51:52.560Z,21.15
2023-01-25T13:54:18.962Z,21.46
2023-01-25T13:56:45.359Z,20.77
2023-01-25T13:59:11.765Z,20.69
2023-01-25T14:01:38.147Z,20.94
2023-01-25T14:04:04.652Z,20.94
2023-01-25T14:06:31.037Z,20.19
2023-01-25T14:08:57.464Z,20.34
2023-01-25T14:11:23.862Z,20.67
2023-01-25T14:13:50.245Z,20.95
2023-01-25T14:16:16.634Z,21.29
2023-01-25T14:18:43.008Z,20.40
2023-01-25T14:21:09.399Z,20.32
2023-01-25T14:23:35.789Z,19.12
2023-01-25T14:26:02.268Z,20.44
2023-01-25T14:28:28.638Z,20.02
2023-01-25T14:30:55.119Z,19.46
2023-01-25T14:33:21.598Z,19.49
2023-01-25T14:35:58.532Z,19.61
2023-01-25T14:38:26.546Z,19.57
2023-01-25T14:40:52.954Z,19.08
2023-01-25T14:43:19.337Z,20.39
2023-01-25T14:45:45.723Z,20.22
2023-01-25T14:48:12.107Z,19.65
2023-01-25T14:50:38.552Z,19.35
2023-01-25T14:53:04.939Z,19.19
2023-01-25T14:55:31.292Z,19.89
2023-01-25T14:57:57.701Z,20.22
2023-01-25T15:00:24.076Z,20.67
2023-01-25T15:02:50.490Z,20.15
2023-01-25T15:05:16.830Z,19.83
2023-01-25T15:07:43.281Z,19.55
2023-01-25T15:10:09.855Z,20.98
2023-01-25T15:12:36.386Z,21.03
2023-01-25T15:15:02.859Z,21.39
2023-01-25T15:17:29.291Z,21.11
2023-01-25T15:19:55.653Z,21.01
2023-01-25T15:22:22.085Z,20.97
2023-01-25T15:24:57.449Z,21.36
2023-01-25T15:27:24.799Z,21.38
2023-01-25T15:29:51.211Z,21.12
2023-01-25T15:32:17.582Z,21.61
2023-01-25T15:34:43.957Z,21.27
2023-01-25T15:37:10.366Z,20.92
2023-01-25T15:39:36.769Z,21.13
2023-01-25T15:42:03.150Z,20.89
2023-01-25T15:44:29.551Z,21.82
2023-01-25T15:46:55.920Z,21.71
2023-01-25T15:49:22.288Z,20.80
2023-01-25T15:51:48.735Z,20.98
2023-01-25T15:54:15.097Z,21.43
2023-01-25T15:56:41.499Z,20.77
2023-01-25T15:59:07.915Z,20.12
2023-01-25T16:01:34.339Z,21.16
2023-01-25T16:04:00.734Z,21.29
2023-01-25T16:06:27.142Z,21.05
2023-01-25T16:08:53.530Z,20.86
2023-01-25T16:11:19.924Z,21.38
2023-01-25T16:13:46.291Z,21.05
2023-01-25T16:16:12.803Z,20.76
2023-01-25T16:18:39.182Z,21.27
2023-01-25T16:21:05.657Z,20.87
2023-01-25T16:23:32.084Z,21.39
2023-01-25T16:25:58.534Z,20.68
2023-01-25T16:28:24.917Z,20.84
2023-01-25T16:30:51.341Z,20.19
2023-01-25T16:33:17.749Z,19.96
2023-01-25T16:35:44.152Z,20.12
2023-01-25T16:38:10.541Z,19.76
2023-01-25T16:40:36.935Z,19.61
2023-01-25T16:43:03.345Z,19.33
2023-01-25T16:45:29.733Z,19.44
2023-01-25T16:47:56.100Z,19.38
2023-01-25T16:50:23.752Z,19.07
2023-01-25T16:52:50.153Z,18.89
2023-01-25T16:55:16.547Z,18.79
2023-01-25T16:57:42.927Z,19.15
2023-01-25T17:00:09.498Z,19.31
2023-01-25T17:02:37.317Z,19.09
2023-01-25T17:05:04.998Z,18.16
2023-01-25T17:07:31.364Z,19.07
2023-01-25T17:09:57.766Z,18.64
2023-01-25T17:12:24.174Z,18.41
2023-01-25T17:14:50.545Z,19.23
2023-01-25T17:17:16.979Z,18.80
2023-01-25T17:19:43.354Z,19.12
2023-01-25T17:22:09.727Z,19.13
2023-01-25T17:24:36.132Z,18.81
2023-01-25T17:27:02.521Z,19.31
2023-01-25T17:29:28.936Z,19.00
2023-01-25T17:31:55.442Z,18.50
2023-01-25T17:34:22.015Z,19.72
2023-01-25T17:36:48.467Z,20.10
2023-01-25T17:39:14.874Z,20.60
2023-01-25T17:41:41.304Z,20.60
2023-01-25T17:44:07.701Z,21.46
2023-01-25T17:46:35.972Z,21.33
2023-01-25T17:49:02.479Z,21.81
2023-01-25T17:51:28.942Z,22.45
2023-01-25T17:53:55.383Z,22.73
2023-01-25T17:56:21.813Z,22.68
2023-01-25T17:58:49.234Z,22.74
2023-01-25T18:01:16.702Z,22.74
2023-01-25T18:03:43.106Z,23.77
2023-01-25T18:06:09.563Z,23.16
2023-01-25T18:08:35.989Z,23.11
2023-01-25T18:11:02.367Z,23.22
2023-01-25T18:13:28.730Z,23.81
2023-01-25T18:15:55.215Z,22.88
2023-01-25T18:18:21.633Z,23.52
2023-01-25T18:20:48.006Z,23.81
2023-01-25T18:23:14.471Z,25.23
2023-01-25T18:25:40.912Z,24.15
2023-01-25T18:28:07.288Z,24.95
2023-01-25T18:30:33.681Z,24.19
2023-01-25T18:33:00.102Z,24.42
2023-01-25T18:35:26.501Z,25.38
2023-01-25T18:37:52.924Z,24.97
2023-01-25T18:40:19.308Z,26.37
2023-01-25T18:42:45.686Z,26.42
2023-01-25T18:45:12.358Z,26.76
2023-01-25T18:47:38.796Z,26.43
2023-01-25T18:50:05.185Z,26.47
2023-01-25T18:52:31.569Z,26.65
2023-01-25T18:54:58.003Z,27.28
2023-01-25T18:57:24.413Z,26.59
2023-01-25T18:59:50.875Z,26.74
2023-01-25T19:02:17.318Z,26.67
2023-01-25T19:04:43.732Z,25.80
2023-01-25T19:07:10.127Z,25.90
2023-01-25T19:09:36.532Z,26.96
2023-01-25T19:12:02.977Z,26.58
2023-01-25T19:14:29.360Z,26.75
2023-01-25T19:16:55.825Z,26.30
2023-01-25T19:19:22.219Z,26.66
2023-01-25T19:21:48.610Z,27.73
2023-01-25T19:24:15.022Z,26.01
2023-01-25T19:26:41.405Z,25.69
2023-01-25T19:29:07.805Z,26.84
2023-01-25T19:31:34.221Z,26.01
2023-01-25T19:34:00.668Z,26.11
2023-01-25T19:36:27.061Z,26.14
2023-01-25T19:38:53.514Z,26.13
2023-01-25T19:41:19.904Z,26.09
2023-01-25T19:43:46.282Z,25.53
2023-01-25T19:46:12.737Z,25.43
2023-01-25T19:48:39.122Z,25.77
2023-01-25T19:51:05.549Z,25.34
2023-01-25T19:53:31.941Z,25.33
2023-01-25T19:55:58.709Z,25.54
2023-01-25T19:58:25.088Z,25.46
2023-01-25T20:00:51.501Z,25.08
2023-01-25T20:03:17.967Z,25.51
2023-01-25T20:05:44.427Z,25.76
2023-01-25T20:08:10.799Z,25.81
2023-01-25T20:10:37.192Z,26.35
2023-01-25T20:13:03.645Z,26.94
2023-01-25T20:15:30.009Z,26.97
2023-01-25T20:17:56.390Z,27.08
2023-01-25T20:20:22.785Z,26.24
2023-01-25T20:22:49.272Z,26.55
2023-01-25T20:25:15.677Z,26.61
2023-01-25T20:27:42.054Z,26.83
2023-01-25T20:30:08.429Z,26.83
2023-01-25T20:32:34.872Z,27.21
2023-01-25T20:35:01.284Z,27.21
2023-01-25T20:37:27.655Z,27.43
2023-01-25T20:39:54.036Z,26.66
2023-01-25T20:42:20.435Z,27.30
2023-01-25T20:44:46.866Z,27.46
2023-01-25T20:47:13.349Z,27.81
2023-01-25T20:49:39.710Z,28.00
2023-01-25T20:52:06.082Z,27.36
2023-01-25T20:54:32.547Z,27.10
2023-01-25T20:56:58.949Z,27.00
2023-01-25T20:59:25.316Z,25.58
2023-01-25T21:01:51.747Z,26.65
2023-01-25T21:04:18.156Z,25.60
2023-01-25T21:06:44.517Z,26.09
2023-01-25T21:09:10.890Z,26.50
2023-01-25T21:11:37.261Z,25.05
2023-01-25T21:14:03.771Z,25.53
2023-01-25T21:16:30.872Z,25.62
2023-01-25T21:18:57.296Z,25.51
2023-01-25T21:21:23.684Z,25.51
2023-01-25T21:23:50.134Z,25.31
2023-01-25T21:26:16.534Z,25.09
2023-01-25T21:28:42.943Z,26.43
2023-01-25T21:31:09.358Z,25.54
2023-01-25T21:33:35.835Z,26.13
2023-01-25T21:36:02.219Z,25.63
2023-01-25T21:38:28.616Z,27.80
2023-01-25T21:40:55.044Z,27.20
2023-01-25T21:43:21.448Z,26.82
2023-01-25T21:45:47.891Z,25.90
2023-01-25T21:48:14.306Z,27.22
2023-01-25T21:50:40.743Z,26.48
2023-01-25T21:53:07.118Z,26.56
2023-01-25T21:55:33.495Z,25.70
2023-01-25T21:57:59.932Z,25.57
2023-01-25T22:00:26.294Z,25.18
2023-01-25T22:02:52.703Z,24.65
2023-01-25T22:05:19.165Z,25.65
2023-01-25T22:07:45.528Z,24.79
2023-01-25T22:10:12.277Z,24.65
2023-01-25T22:12:38.886Z,25.09
2023-01-25T22:15:05.294Z,24.22
2023-01-25T22:17:31.691Z,23.89
2023-01-25T22:19:58.070Z,24.24
2023-01-25T22:22:24.462Z,24.36
2023-01-25T22:24:50.851Z,24.29
2023-01-25T22:27:17.265Z,22.93
2023-01-25T22:29:43.669Z,23.41
2023-01-25T22:32:10.033Z,22.93
2023-01-25T22:34:36.463Z,23.01
2023-01-25T22:37:02.864Z,23.09
2023-01-25T22:39:29.261Z,22.33
2023-01-25T22:41:55.672Z,23.15
2023-01-25T22:44:22.076Z,22.76
2023-01-25T22:46:48.470Z,22.83
2023-01-25T22:49:14.860Z,22.74
2023-01-25T22:51:41.267Z,22.51
2023-01-25T22:54:07.642Z,22.81
2023-01-25T22:56:34.014Z,21.96
2023-01-25T22:59:00.490Z,21.23
2023-01-25T23:01:26.984Z,22.48
2023-01-25T23:03:53.378Z,22.53
2023-01-25T23:06:19.787Z,23.82
2023-01-25T23:08:46.167Z,24.00
2023-01-25T23:11:12.566Z,23.20
2023-01-25T23:13:39.062Z,22.91
2023-01-25T23:16:05.554Z,23.18
2023-01-25T23:18:31.949Z,23.15
2023-01-25T23:20:58.352Z,23.34
2023-01-25T23:23:24.745Z,22.79
2023-01-25T23:25:51.112Z,23.28
2023-01-25T23:28:17.509Z,22.97
2023-01-25T23:30:43.941Z,22.91
2023-01-25T23:33:10.399Z,22.84
2023-01-25T23:35:36.794Z,23.28
2023-01-25T23:38:03.179Z,23.78
2023-01-25T23:40:29.558Z,23.50
2023-01-25T23:42:55.980Z,22.95
2023-01-25T23:45:22.352Z,22.78
2023-01-25T23:47:48.772Z,22.20
2023-01-25T23:50:15.142Z,20.96
2023-01-25T23:52:41.513Z,19.61
2023-01-25T23:55:07.906Z,19.55
2023-01-25T23:57:34.289Z,19.44
